sensor_id;sensor_type;location;lat;lon;timestamp;P1;durP1;ratioP1;P2;durP2;ratioP2
25439;SDS011;13365;52.208;5.488;2023-04-08T00:00:48;16.08;;;4.85;;
25439;SDS011;13365;52.208;5.488;2023-04-08T00:03:14;9.75;;;4.32;;
25439;SDS011;13365;52.208;5.488;2023-04-08T00:05:40;14.95;;;3.67;;
25439;SDS011;13365;52.208;5.488;2023-04-08T00:08:05;14.95;;;4.32;;
25439;SDS011;13365;52.208;5.488;2023-04-08T00:10:31;21.23;;;3.95;;
25439;SDS011;13365;52.208;5.488;2023-04-08T00:12:57;25.58;;;4.90;;
25439;SDS011;13365;52.208;5.488;2023-04-08T00:15:24;12.45;;;4.40;;
25439;SDS011;13365;52.208;5.488;2023-04-08T00:17:50;22.13;;;4.40;;
25439;SDS011;13365;52.208;5.488;2023-04-08T00:20:18;31.17;;;5.45;;
25439;SDS011;13365;52.208;5.488;2023-04-08T00:22:44;11.30;;;4.20;;
25439;SDS011;13365;52.208;5.488;2023-04-08T00:25:10;17.70;;;4.32;;
25439;SDS011;13365;52.208;5.488;2023-04-08T00:27:36;51.78;;;7.43;;
25439;SDS011;13365;52.208;5.488;2023-04-08T00:30:02;75.78;;;5.95;;
25439;SDS011;13365;52.208;5.488;2023-04-08T00:32:27;35.03;;;4.15;;
25439;SDS011;13365;52.208;5.488;2023-04-08T00:34:53;16.92;;;3.85;;
25439;SDS011;13365;52.208;5.488;2023-04-08T00:37:19;32.85;;;5.85;;
25439;SDS011;13365;52.208;5.488;2023-04-08T00:39:45;28.42;;;4.50;;
25439;SDS011;13365;52.208;5.488;2023-04-08T00:42:10;39.42;;;4.93;;
25439;SDS011;13365;52.208;5.488;2023-04-08T00:44:36;15.10;;;3.30;;
25439;SDS011;13365;52.208;5.488;2023-04-08T00:47:02;44.97;;;4.78;;
25439;SDS011;13365;52.208;5.488;2023-04-08T00:49:29;34.63;;;4.90;;
25439;SDS011;13365;52.208;5.488;2023-04-08T00:51:55;35.28;;;4.30;;
25439;SDS011;13365;52.208;5.488;2023-04-08T00:54:21;7.53;;;3.35;;
25439;SDS011;13365;52.208;5.488;2023-04-08T00:56:46;21.08;;;3.67;;
25439;SDS011;13365;52.208;5.488;2023-04-08T00:59:12;18.30;;;4.45;;
25439;SDS011;13365;52.208;5.488;2023-04-08T01:07:19;32.72;;;4.40;;
25439;SDS011;13365;52.208;5.488;2023-04-08T01:09:54;45.70;;;5.30;;
25439;SDS011;13365;52.208;5.488;2023-04-08T01:12:24;44.42;;;4.68;;
25439;SDS011;13365;52.208;5.488;2023-04-08T01:15:05;30.67;;;4.07;;
25439;SDS011;13365;52.208;5.488;2023-04-08T01:17:33;18.77;;;4.03;;
25439;SDS011;13365;52.208;5.488;2023-04-08T01:20:00;46.20;;;4.53;;
25439;SDS011;13365;52.208;5.488;2023-04-08T01:25:30;38.00;;;3.80;;
25439;SDS011;13365;52.208;5.488;2023-04-08T01:28:11;39.60;;;4.07;;
25439;SDS011;13365;52.208;5.488;2023-04-08T01:30:40;32.20;;;4.13;;
25439;SDS011;13365;52.208;5.488;2023-04-08T01:33:06;25.17;;;3.72;;
25439;SDS011;13365;52.208;5.488;2023-04-08T01:35:35;10.32;;;3.35;;
25439;SDS011;13365;52.208;5.488;2023-04-08T01:38:01;25.50;;;4.10;;
25439;SDS011;13365;52.208;5.488;2023-04-08T01:40:28;8.45;;;3.53;;
25439;SDS011;13365;52.208;5.488;2023-04-08T01:42:55;12.70;;;4.05;;
25439;SDS011;13365;52.208;5.488;2023-04-08T01:45:24;15.35;;;4.60;;
25439;SDS011;13365;52.208;5.488;2023-04-08T01:47:51;32.65;;;4.50;;
25439;SDS011;13365;52.208;5.488;2023-04-08T01:50:17;16.20;;;4.30;;
25439;SDS011;13365;52.208;5.488;2023-04-08T01:52:45;29.45;;;4.47;;
25439;SDS011;13365;52.208;5.488;2023-04-08T01:55:13;30.20;;;6.15;;
25439;SDS011;13365;52.208;5.488;2023-04-08T01:57:39;21.23;;;4.22;;
25439;SDS011;13365;52.208;5.488;2023-04-08T02:00:09;45.97;;;5.57;;
25439;SDS011;13365;52.208;5.488;2023-04-08T02:02:36;9.13;;;3.80;;
25439;SDS011;13365;52.208;5.488;2023-04-08T02:05:05;18.85;;;4.15;;
25439;SDS011;13365;52.208;5.488;2023-04-08T02:07:31;7.45;;;3.80;;
25439;SDS011;13365;52.208;5.488;2023-04-08T02:09:56;26.00;;;5.32;;
25439;SDS011;13365;52.208;5.488;2023-04-08T02:12:22;28.52;;;4.68;;
25439;SDS011;13365;52.208;5.488;2023-04-08T02:14:49;7.70;;;3.92;;
25439;SDS011;13365;52.208;5.488;2023-04-08T02:17:20;17.52;;;4.40;;
25439;SDS011;13365;52.208;5.488;2023-04-08T02:19:59;12.70;;;4.90;;
25439;SDS011;13365;52.208;5.488;2023-04-08T02:22:35;23.08;;;6.03;;
25439;SDS011;13365;52.208;5.488;2023-04-08T02:25:10;10.93;;;5.15;;
25439;SDS011;13365;52.208;5.488;2023-04-08T02:27:40;8.73;;;4.95;;
25439;SDS011;13365;52.208;5.488;2023-04-08T02:30:07;15.50;;;4.78;;
25439;SDS011;13365;52.208;5.488;2023-04-08T02:32:35;14.73;;;3.95;;
25439;SDS011;13365;52.208;5.488;2023-04-08T02:35:01;19.35;;;4.43;;
25439;SDS011;13365;52.208;5.488;2023-04-08T02:37:29;7.45;;;4.20;;
25439;SDS011;13365;52.208;5.488;2023-04-08T02:39:55;7.80;;;3.72;;
25439;SDS011;13365;52.208;5.488;2023-04-08T02:42:21;27.35;;;4.53;;
25439;SDS011;13365;52.208;5.488;2023-04-08T02:44:46;20.58;;;3.90;;
25439;SDS011;13365;52.208;5.488;2023-04-08T02:47:12;14.85;;;4.63;;
25439;SDS011;13365;52.208;5.488;2023-04-08T02:49:38;22.70;;;4.05;;
25439;SDS011;13365;52.208;5.488;2023-04-08T02:52:03;46.35;;;5.22;;
25439;SDS011;13365;52.208;5.488;2023-04-08T02:54:29;76.10;;;6.13;;
25439;SDS011;13365;52.208;5.488;2023-04-08T02:56:55;21.67;;;4.22;;
25439;SDS011;13365;52.208;5.488;2023-04-08T02:59:20;75.97;;;5.90;;
25439;SDS011;13365;52.208;5.488;2023-04-08T03:01:46;48.03;;;5.13;;
25439;SDS011;13365;52.208;5.488;2023-04-08T03:04:11;16.92;;;3.83;;
25439;SDS011;13365;52.208;5.488;2023-04-08T03:06:37;12.02;;;3.50;;
25439;SDS011;13365;52.208;5.488;2023-04-08T03:09:02;43.72;;;4.72;;
25439;SDS011;13365;52.208;5.488;2023-04-08T03:11:29;62.20;;;5.28;;
25439;SDS011;13365;52.208;5.488;2023-04-08T03:13:55;39.40;;;4.93;;
25439;SDS011;13365;52.208;5.488;2023-04-08T03:16:21;53.35;;;5.05;;
25439;SDS011;13365;52.208;5.488;2023-04-08T03:18:48;61.20;;;6.10;;
25439;SDS011;13365;52.208;5.488;2023-04-08T03:21:15;31.25;;;3.72;;
25439;SDS011;13365;52.208;5.488;2023-04-08T03:23:40;40.17;;;3.83;;
25439;SDS011;13365;52.208;5.488;2023-04-08T03:26:06;11.77;;;2.97;;
25439;SDS011;13365;52.208;5.488;2023-04-08T03:28:31;24.48;;;3.58;;
25439;SDS011;13365;52.208;5.488;2023-04-08T03:30:57;7.38;;;3.10;;
25439;SDS011;13365;52.208;5.488;2023-04-08T03:33:22;23.30;;;3.67;;
25439;SDS011;13365;52.208;5.488;2023-04-08T03:35:48;17.30;;;3.15;;
25439;SDS011;13365;52.208;5.488;2023-04-08T03:38:13;25.67;;;2.35;;
25439;SDS011;13365;52.208;5.488;2023-04-08T03:40:39;21.60;;;2.67;;
25439;SDS011;13365;52.208;5.488;2023-04-08T03:43:04;7.88;;;3.17;;
25439;SDS011;13365;52.208;5.488;2023-04-08T03:45:30;3.08;;;1.92;;
25439;SDS011;13365;52.208;5.488;2023-04-08T03:47:56;2.63;;;1.50;;
25439;SDS011;13365;52.208;5.488;2023-04-08T03:50:21;10.18;;;2.17;;
25439;SDS011;13365;52.208;5.488;2023-04-08T03:52:47;3.22;;;2.10;;
25439;SDS011;13365;52.208;5.488;2023-04-08T03:55:13;6.18;;;2.25;;
25439;SDS011;13365;52.208;5.488;2023-04-08T03:57:38;4.88;;;2.33;;
25439;SDS011;13365;52.208;5.488;2023-04-08T04:00:04;5.45;;;2.38;;
25439;SDS011;13365;52.208;5.488;2023-04-08T04:02:30;5.45;;;2.22;;
25439;SDS011;13365;52.208;5.488;2023-04-08T04:04:56;5.95;;;2.95;;
25439;SDS011;13365;52.208;5.488;2023-04-08T04:07:21;2.72;;;1.98;;
25439;SDS011;13365;52.208;5.488;2023-04-08T04:09:47;4.93;;;2.22;;
25439;SDS011;13365;52.208;5.488;2023-04-08T04:12:12;4.45;;;2.47;;
25439;SDS011;13365;52.208;5.488;2023-04-08T04:14:38;5.45;;;2.88;;
25439;SDS011;13365;52.208;5.488;2023-04-08T04:17:03;4.75;;;2.40;;
25439;SDS011;13365;52.208;5.488;2023-04-08T04:19:29;4.30;;;2.35;;
25439;SDS011;13365;52.208;5.488;2023-04-08T04:21:55;5.85;;;3.45;;
25439;SDS011;13365;52.208;5.488;2023-04-08T04:24:21;6.10;;;3.00;;
25439;SDS011;13365;52.208;5.488;2023-04-08T04:26:46;5.43;;;2.95;;
25439;SDS011;13365;52.208;5.488;2023-04-08T04:29:12;7.72;;;3.63;;
25439;SDS011;13365;52.208;5.488;2023-04-08T04:31:37;5.88;;;3.33;;
25439;SDS011;13365;52.208;5.488;2023-04-08T04:34:03;9.38;;;3.47;;
25439;SDS011;13365;52.208;5.488;2023-04-08T04:36:28;5.55;;;3.28;;
25439;SDS011;13365;52.208;5.488;2023-04-08T04:38:55;4.90;;;3.15;;
25439;SDS011;13365;52.208;5.488;2023-04-08T04:41:20;6.88;;;3.38;;
25439;SDS011;13365;52.208;5.488;2023-04-08T04:43:46;4.63;;;2.40;;
25439;SDS011;13365;52.208;5.488;2023-04-08T04:46:11;5.03;;;3.55;;
25439;SDS011;13365;52.208;5.488;2023-04-08T04:48:37;6.13;;;3.08;;
25439;SDS011;13365;52.208;5.488;2023-04-08T04:51:03;6.97;;;3.88;;
25439;SDS011;13365;52.208;5.488;2023-04-08T04:53:29;5.32;;;3.47;;
25439;SDS011;13365;52.208;5.488;2023-04-08T04:55:55;7.80;;;4.22;;
25439;SDS011;13365;52.208;5.488;2023-04-08T04:58:21;6.28;;;3.30;;
25439;SDS011;13365;52.208;5.488;2023-04-08T05:00:46;6.70;;;3.17;;
25439;SDS011;13365;52.208;5.488;2023-04-08T05:03:12;6.53;;;3.78;;
25439;SDS011;13365;52.208;5.488;2023-04-08T05:05:38;7.00;;;3.30;;
25439;SDS011;13365;52.208;5.488;2023-04-08T05:08:03;7.13;;;3.33;;
25439;SDS011;13365;52.208;5.488;2023-04-08T05:10:31;6.15;;;2.58;;
25439;SDS011;13365;52.208;5.488;2023-04-08T05:12:56;5.22;;;2.95;;
25439;SDS011;13365;52.208;5.488;2023-04-08T05:15:22;7.03;;;3.53;;
25439;SDS011;13365;52.208;5.488;2023-04-08T05:17:47;4.82;;;2.45;;
25439;SDS011;13365;52.208;5.488;2023-04-08T05:20:13;6.35;;;3.83;;
25439;SDS011;13365;52.208;5.488;2023-04-08T05:22:38;10.50;;;4.30;;
25439;SDS011;13365;52.208;5.488;2023-04-08T05:25:04;8.27;;;4.15;;
25439;SDS011;13365;52.208;5.488;2023-04-08T05:27:30;7.20;;;3.78;;
25439;SDS011;13365;52.208;5.488;2023-04-08T05:29:56;6.88;;;3.40;;
25439;SDS011;13365;52.208;5.488;2023-04-08T05:32:21;6.53;;;3.70;;
25439;SDS011;13365;52.208;5.488;2023-04-08T05:34:47;7.55;;;3.80;;
25439;SDS011;13365;52.208;5.488;2023-04-08T05:37:12;8.35;;;4.60;;
25439;SDS011;13365;52.208;5.488;2023-04-08T05:39:38;10.50;;;5.43;;
25439;SDS011;13365;52.208;5.488;2023-04-08T05:42:03;7.30;;;3.80;;
25439;SDS011;13365;52.208;5.488;2023-04-08T05:44:29;8.27;;;4.22;;
25439;SDS011;13365;52.208;5.488;2023-04-08T05:46:55;8.57;;;4.20;;
25439;SDS011;13365;52.208;5.488;2023-04-08T05:49:21;8.68;;;5.00;;
25439;SDS011;13365;52.208;5.488;2023-04-08T05:51:47;10.00;;;4.85;;
25439;SDS011;13365;52.208;5.488;2023-04-08T05:54:13;12.40;;;5.88;;
25439;SDS011;13365;52.208;5.488;2023-04-08T05:56:38;9.18;;;4.35;;
25439;SDS011;13365;52.208;5.488;2023-04-08T05:59:04;9.13;;;4.53;;
25439;SDS011;13365;52.208;5.488;2023-04-08T06:01:29;10.13;;;5.35;;
25439;SDS011;13365;52.208;5.488;2023-04-08T06:03:55;14.48;;;5.07;;
25439;SDS011;13365;52.208;5.488;2023-04-08T06:06:21;11.15;;;5.00;;
25439;SDS011;13365;52.208;5.488;2023-04-08T06:08:47;10.30;;;4.47;;
25439;SDS011;13365;52.208;5.488;2023-04-08T06:11:12;10.20;;;4.32;;
25439;SDS011;13365;52.208;5.488;2023-04-08T06:13:38;11.00;;;4.78;;
25439;SDS011;13365;52.208;5.488;2023-04-08T06:16:10;10.68;;;5.72;;
25439;SDS011;13365;52.208;5.488;2023-04-08T06:18:36;9.68;;;4.45;;
25439;SDS011;13365;52.208;5.488;2023-04-08T06:21:01;9.88;;;5.00;;
25439;SDS011;13365;52.208;5.488;2023-04-08T06:23:27;13.43;;;4.72;;
25439;SDS011;13365;52.208;5.488;2023-04-08T06:25:52;10.32;;;4.55;;
25439;SDS011;13365;52.208;5.488;2023-04-08T06:28:18;10.20;;;5.07;;
25439;SDS011;13365;52.208;5.488;2023-04-08T06:30:43;8.20;;;4.45;;
25439;SDS011;13365;52.208;5.488;2023-04-08T06:33:09;11.00;;;4.93;;
25439;SDS011;13365;52.208;5.488;2023-04-08T06:35:35;12.70;;;6.00;;
25439;SDS011;13365;52.208;5.488;2023-04-08T06:38:01;10.68;;;7.05;;
25439;SDS011;13365;52.208;5.488;2023-04-08T06:40:27;10.35;;;4.72;;
25439;SDS011;13365;52.208;5.488;2023-04-08T06:42:53;11.52;;;4.72;;
25439;SDS011;13365;52.208;5.488;2023-04-08T06:45:18;16.88;;;6.57;;
25439;SDS011;13365;52.208;5.488;2023-04-08T06:47:44;9.50;;;5.43;;
25439;SDS011;13365;52.208;5.488;2023-04-08T06:50:09;9.63;;;6.03;;
25439;SDS011;13365;52.208;5.488;2023-04-08T06:52:35;10.30;;;5.57;;
25439;SDS011;13365;52.208;5.488;2023-04-08T06:55:01;10.18;;;5.07;;
25439;SDS011;13365;52.208;5.488;2023-04-08T06:57:26;11.15;;;5.70;;
25439;SDS011;13365;52.208;5.488;2023-04-08T06:59:52;20.15;;;5.80;;
25439;SDS011;13365;52.208;5.488;2023-04-08T07:02:17;10.00;;;4.85;;
25439;SDS011;13365;52.208;5.488;2023-04-08T07:04:43;8.93;;;5.70;;
25439;SDS011;13365;52.208;5.488;2023-04-08T07:07:08;9.27;;;5.20;;
25439;SDS011;13365;52.208;5.488;2023-04-08T07:09:34;8.45;;;4.90;;
25439;SDS011;13365;52.208;5.488;2023-04-08T07:12:00;10.88;;;6.75;;
25439;SDS011;13365;52.208;5.488;2023-04-08T07:14:28;11.75;;;5.47;;
25439;SDS011;13365;52.208;5.488;2023-04-08T07:16:53;10.55;;;5.57;;
25439;SDS011;13365;52.208;5.488;2023-04-08T07:19:20;8.52;;;5.72;;
25439;SDS011;13365;52.208;5.488;2023-04-08T07:21:46;9.10;;;6.13;;
25439;SDS011;13365;52.208;5.488;2023-04-08T07:24:12;11.60;;;5.60;;
25439;SDS011;13365;52.208;5.488;2023-04-08T07:26:37;10.63;;;5.50;;
25439;SDS011;13365;52.208;5.488;2023-04-08T07:29:03;9.88;;;6.25;;
25439;SDS011;13365;52.208;5.488;2023-04-08T07:31:29;10.60;;;5.50;;
25439;SDS011;13365;52.208;5.488;2023-04-08T07:33:54;9.55;;;4.82;;
25439;SDS011;13365;52.208;5.488;2023-04-08T07:36:20;8.85;;;4.68;;
25439;SDS011;13365;52.208;5.488;2023-04-08T07:38:46;10.80;;;5.68;;
25439;SDS011;13365;52.208;5.488;2023-04-08T07:41:11;9.40;;;5.10;;
25439;SDS011;13365;52.208;5.488;2023-04-08T07:43:37;13.60;;;5.38;;
25439;SDS011;13365;52.208;5.488;2023-04-08T07:46:03;10.35;;;5.75;;
25439;SDS011;13365;52.208;5.488;2023-04-08T07:48:30;9.23;;;4.53;;
25439;SDS011;13365;52.208;5.488;2023-04-08T07:50:56;6.82;;;4.03;;
25439;SDS011;13365;52.208;5.488;2023-04-08T07:53:22;10.05;;;5.00;;
25439;SDS011;13365;52.208;5.488;2023-04-08T07:55:49;6.90;;;4.10;;
25439;SDS011;13365;52.208;5.488;2023-04-08T07:58:14;7.75;;;4.18;;
25439;SDS011;13365;52.208;5.488;2023-04-08T08:00:40;6.00;;;4.25;;
25439;SDS011;13365;52.208;5.488;2023-04-08T08:03:06;9.35;;;5.60;;
25439;SDS011;13365;52.208;5.488;2023-04-08T08:05:31;7.45;;;4.10;;
25439;SDS011;13365;52.208;5.488;2023-04-08T08:07:57;8.52;;;5.13;;
25439;SDS011;13365;52.208;5.488;2023-04-08T08:10:23;9.52;;;5.38;;
25439;SDS011;13365;52.208;5.488;2023-04-08T08:12:48;7.45;;;4.65;;
25439;SDS011;13365;52.208;5.488;2023-04-08T08:15:14;9.50;;;6.03;;
25439;SDS011;13365;52.208;5.488;2023-04-08T08:17:40;8.75;;;4.85;;
25439;SDS011;13365;52.208;5.488;2023-04-08T08:20:06;6.47;;;4.65;;
25439;SDS011;13365;52.208;5.488;2023-04-08T08:22:32;9.60;;;5.30;;
25439;SDS011;13365;52.208;5.488;2023-04-08T08:24:57;7.18;;;4.57;;
25439;SDS011;13365;52.208;5.488;2023-04-08T08:27:24;8.85;;;5.55;;
25439;SDS011;13365;52.208;5.488;2023-04-08T08:29:49;7.32;;;5.03;;
25439;SDS011;13365;52.208;5.488;2023-04-08T08:32:15;8.00;;;5.30;;
25439;SDS011;13365;52.208;5.488;2023-04-08T08:34:41;5.78;;;3.50;;
25439;SDS011;13365;52.208;5.488;2023-04-08T08:37:06;8.02;;;5.32;;
25439;SDS011;13365;52.208;5.488;2023-04-08T08:39:31;7.95;;;4.95;;
25439;SDS011;13365;52.208;5.488;2023-04-08T08:41:57;6.57;;;4.03;;
25439;SDS011;13365;52.208;5.488;2023-04-08T08:44:23;8.85;;;4.55;;
25439;SDS011;13365;52.208;5.488;2023-04-08T08:46:48;5.90;;;3.58;;
25439;SDS011;13365;52.208;5.488;2023-04-08T08:49:14;5.80;;;3.47;;
25439;SDS011;13365;52.208;5.488;2023-04-08T08:51:39;5.38;;;4.03;;
25439;SDS011;13365;52.208;5.488;2023-04-08T08:54:08;22.83;;;4.40;;
25439;SDS011;13365;52.208;5.488;2023-04-08T08:56:33;3.80;;;2.50;;
25439;SDS011;13365;52.208;5.488;2023-04-08T08:58:59;5.47;;;3.33;;
25439;SDS011;13365;52.208;5.488;2023-04-08T09:01:43;5.38;;;3.30;;
25439;SDS011;13365;52.208;5.488;2023-04-08T09:04:18;5.80;;;2.88;;
25439;SDS011;13365;52.208;5.488;2023-04-08T09:06:46;4.90;;;3.13;;
25439;SDS011;13365;52.208;5.488;2023-04-08T09:09:14;5.22;;;3.42;;
25439;SDS011;13365;52.208;5.488;2023-04-08T09:11:41;6.63;;;3.38;;
25439;SDS011;13365;52.208;5.488;2023-04-08T09:14:21;4.60;;;2.67;;
25439;SDS011;13365;52.208;5.488;2023-04-08T09:16:49;6.47;;;3.72;;
25439;SDS011;13365;52.208;5.488;2023-04-08T09:19:15;7.43;;;3.88;;
25439;SDS011;13365;52.208;5.488;2023-04-08T09:21:41;4.60;;;3.33;;
25439;SDS011;13365;52.208;5.488;2023-04-08T09:24:08;5.90;;;3.97;;
25439;SDS011;13365;52.208;5.488;2023-04-08T09:26:35;6.40;;;3.45;;
25439;SDS011;13365;52.208;5.488;2023-04-08T09:31:34;5.03;;;3.17;;
25439;SDS011;13365;52.208;5.488;2023-04-08T09:34:12;4.28;;;2.80;;
25439;SDS011;13365;52.208;5.488;2023-04-08T09:36:40;4.50;;;2.85;;
25439;SDS011;13365;52.208;5.488;2023-04-08T09:39:06;4.68;;;2.90;;
25439;SDS011;13365;52.208;5.488;2023-04-08T09:41:35;6.68;;;2.97;;
25439;SDS011;13365;52.208;5.488;2023-04-08T09:44:11;5.53;;;2.97;;
25439;SDS011;13365;52.208;5.488;2023-04-08T09:46:46;4.93;;;3.17;;
25439;SDS011;13365;52.208;5.488;2023-04-08T09:49:54;6.28;;;3.72;;
25439;SDS011;13365;52.208;5.488;2023-04-08T09:52:29;5.00;;;2.95;;
25439;SDS011;13365;52.208;5.488;2023-04-08T09:55:02;5.55;;;3.35;;
25439;SDS011;13365;52.208;5.488;2023-04-08T10:00:10;4.82;;;3.28;;
25439;SDS011;13365;52.208;5.488;2023-04-08T10:03:24;8.55;;;3.20;;
25439;SDS011;13365;52.208;5.488;2023-04-08T10:05:23;4.30;;;2.88;;
25439;SDS011;13365;52.208;5.488;2023-04-08T10:07:50;6.85;;;3.47;;
25439;SDS011;13365;52.208;5.488;2023-04-08T10:10:16;4.78;;;3.22;;
25439;SDS011;13365;52.208;5.488;2023-04-08T10:12:42;6.13;;;3.85;;
25439;SDS011;13365;52.208;5.488;2023-04-08T10:15:21;5.35;;;2.92;;
25439;SDS011;13365;52.208;5.488;2023-04-08T10:17:51;6.18;;;4.18;;
25439;SDS011;13365;52.208;5.488;2023-04-08T10:22:58;4.50;;;3.15;;
25439;SDS011;13365;52.208;5.488;2023-04-08T10:25:36;6.63;;;3.35;;
25439;SDS011;13365;52.208;5.488;2023-04-08T10:33:03;10.52;;;3.88;;
25439;SDS011;13365;52.208;5.488;2023-04-08T10:35:41;5.85;;;2.97;;
25439;SDS011;13365;52.208;5.488;2023-04-08T10:38:11;5.32;;;3.33;;
25439;SDS011;13365;52.208;5.488;2023-04-08T10:40:37;6.13;;;2.92;;
25439;SDS011;13365;52.208;5.488;2023-04-08T10:43:05;6.05;;;3.10;;
25439;SDS011;13365;52.208;5.488;2023-04-08T10:45:31;7.00;;;3.08;;
25439;SDS011;13365;52.208;5.488;2023-04-08T10:48:01;5.03;;;3.00;;
25439;SDS011;13365;52.208;5.488;2023-04-08T10:50:36;8.93;;;4.13;;
25439;SDS011;13365;52.208;5.488;2023-04-08T10:53:01;2.97;;;2.03;;
25439;SDS011;13365;52.208;5.488;2023-04-08T10:55:27;7.40;;;3.58;;
25439;SDS011;13365;52.208;5.488;2023-04-08T10:57:53;6.20;;;3.22;;
25439;SDS011;13365;52.208;5.488;2023-04-08T11:00:19;5.97;;;3.45;;
25439;SDS011;13365;52.208;5.488;2023-04-08T11:03:03;4.95;;;3.63;;
25439;SDS011;13365;52.208;5.488;2023-04-08T11:05:30;5.68;;;3.38;;
25439;SDS011;13365;52.208;5.488;2023-04-08T11:07:57;5.18;;;3.40;;
25439;SDS011;13365;52.208;5.488;2023-04-08T11:10:23;6.78;;;3.00;;
25439;SDS011;13365;52.208;5.488;2023-04-08T11:12:49;5.20;;;3.38;;
25439;SDS011;13365;52.208;5.488;2023-04-08T11:15:15;7.43;;;4.00;;
25439;SDS011;13365;52.208;5.488;2023-04-08T11:17:41;7.53;;;3.97;;
25439;SDS011;13365;52.208;5.488;2023-04-08T11:20:07;4.03;;;2.60;;
25439;SDS011;13365;52.208;5.488;2023-04-08T11:22:33;5.03;;;3.42;;
25439;SDS011;13365;52.208;5.488;2023-04-08T11:25:00;5.20;;;3.17;;
25439;SDS011;13365;52.208;5.488;2023-04-08T11:27:26;5.35;;;3.25;;
25439;SDS011;13365;52.208;5.488;2023-04-08T11:29:55;7.00;;;3.20;;
25439;SDS011;13365;52.208;5.488;2023-04-08T11:32:21;4.85;;;3.20;;
25439;SDS011;13365;52.208;5.488;2023-04-08T11:34:48;7.68;;;3.95;;
25439;SDS011;13365;52.208;5.488;2023-04-08T11:37:14;4.45;;;3.38;;
25439;SDS011;13365;52.208;5.488;2023-04-08T11:39:43;6.18;;;3.75;;
25439;SDS011;13365;52.208;5.488;2023-04-08T11:42:25;5.03;;;2.90;;
25439;SDS011;13365;52.208;5.488;2023-04-08T11:44:54;5.70;;;4.05;;
25439;SDS011;13365;52.208;5.488;2023-04-08T11:47:20;5.65;;;3.22;;
25439;SDS011;13365;52.208;5.488;2023-04-08T11:49:46;6.95;;;3.50;;
25439;SDS011;13365;52.208;5.488;2023-04-08T11:52:12;6.70;;;3.58;;
25439;SDS011;13365;52.208;5.488;2023-04-08T11:54:41;6.65;;;3.03;;
25439;SDS011;13365;52.208;5.488;2023-04-08T11:57:07;10.55;;;3.97;;
25439;SDS011;13365;52.208;5.488;2023-04-08T11:59:36;8.98;;;3.90;;
25439;SDS011;13365;52.208;5.488;2023-04-08T12:02:01;7.22;;;3.40;;
25439;SDS011;13365;52.208;5.488;2023-04-08T12:04:27;5.82;;;3.00;;
25439;SDS011;13365;52.208;5.488;2023-04-08T12:06:53;4.53;;;2.90;;
25439;SDS011;13365;52.208;5.488;2023-04-08T12:09:19;4.55;;;2.90;;
25439;SDS011;13365;52.208;5.488;2023-04-08T12:11:45;3.70;;;2.20;;
25439;SDS011;13365;52.208;5.488;2023-04-08T12:14:10;4.70;;;3.30;;
25439;SDS011;13365;52.208;5.488;2023-04-08T12:16:36;5.30;;;3.38;;
25439;SDS011;13365;52.208;5.488;2023-04-08T12:19:02;5.50;;;3.70;;
25439;SDS011;13365;52.208;5.488;2023-04-08T12:21:27;5.40;;;3.30;;
25439;SDS011;13365;52.208;5.488;2023-04-08T12:23:53;5.90;;;3.05;;
25439;SDS011;13365;52.208;5.488;2023-04-08T12:26:18;5.03;;;3.25;;
25439;SDS011;13365;52.208;5.488;2023-04-08T12:28:44;4.75;;;2.72;;
25439;SDS011;13365;52.208;5.488;2023-04-08T12:31:10;4.88;;;3.30;;
25439;SDS011;13365;52.208;5.488;2023-04-08T12:33:36;8.65;;;3.42;;
25439;SDS011;13365;52.208;5.488;2023-04-08T12:36:01;5.03;;;3.05;;
25439;SDS011;13365;52.208;5.488;2023-04-08T12:38:27;4.75;;;2.90;;
25439;SDS011;13365;52.208;5.488;2023-04-08T12:40:53;3.80;;;2.22;;
25439;SDS011;13365;52.208;5.488;2023-04-08T12:43:19;5.15;;;3.40;;
25439;SDS011;13365;52.208;5.488;2023-04-08T12:45:45;5.65;;;2.60;;
25439;SDS011;13365;52.208;5.488;2023-04-08T12:48:10;5.40;;;2.85;;
25439;SDS011;13365;52.208;5.488;2023-04-08T12:50:36;4.38;;;2.50;;
25439;SDS011;13365;52.208;5.488;2023-04-08T12:53:01;4.53;;;2.92;;
25439;SDS011;13365;52.208;5.488;2023-04-08T12:55:27;6.22;;;2.50;;
25439;SDS011;13365;52.208;5.488;2023-04-08T12:57:52;6.65;;;3.40;;
25439;SDS011;13365;52.208;5.488;2023-04-08T13:00:18;9.40;;;3.30;;
25439;SDS011;13365;52.208;5.488;2023-04-08T13:02:44;4.93;;;3.38;;
25439;SDS011;13365;52.208;5.488;2023-04-08T13:05:10;4.82;;;2.70;;
25439;SDS011;13365;52.208;5.488;2023-04-08T13:07:36;4.10;;;2.55;;
25439;SDS011;13365;52.208;5.488;2023-04-08T13:10:01;4.18;;;2.90;;
25439;SDS011;13365;52.208;5.488;2023-04-08T13:12:28;5.07;;;1.90;;
25439;SDS011;13365;52.208;5.488;2023-04-08T13:14:54;3.30;;;1.77;;
25439;SDS011;13365;52.208;5.488;2023-04-08T13:17:19;3.78;;;2.35;;
25439;SDS011;13365;52.208;5.488;2023-04-08T13:19:45;3.58;;;1.85;;
25439;SDS011;13365;52.208;5.488;2023-04-08T13:22:11;4.50;;;2.58;;
25439;SDS011;13365;52.208;5.488;2023-04-08T13:24:38;8.48;;;2.78;;
25439;SDS011;13365;52.208;5.488;2023-04-08T13:27:03;3.53;;;1.77;;
25439;SDS011;13365;52.208;5.488;2023-04-08T13:29:29;5.60;;;3.22;;
25439;SDS011;13365;52.208;5.488;2023-04-08T13:31:54;4.75;;;2.75;;
25439;SDS011;13365;52.208;5.488;2023-04-08T13:34:20;8.32;;;2.75;;
25439;SDS011;13365;52.208;5.488;2023-04-08T13:36:46;4.68;;;2.88;;
25439;SDS011;13365;52.208;5.488;2023-04-08T13:39:11;5.53;;;2.72;;
25439;SDS011;13365;52.208;5.488;2023-04-08T13:41:37;4.22;;;2.53;;
25439;SDS011;13365;52.208;5.488;2023-04-08T13:44:02;5.78;;;2.78;;
25439;SDS011;13365;52.208;5.488;2023-04-08T13:46:28;5.65;;;3.70;;
25439;SDS011;13365;52.208;5.488;2023-04-08T13:48:53;4.88;;;3.13;;
25439;SDS011;13365;52.208;5.488;2023-04-08T13:51:19;6.00;;;3.00;;
25439;SDS011;13365;52.208;5.488;2023-04-08T13:53:44;13.23;;;3.70;;
25439;SDS011;13365;52.208;5.488;2023-04-08T13:56:10;6.38;;;3.83;;
25439;SDS011;13365;52.208;5.488;2023-04-08T13:58:36;7.18;;;4.13;;
25439;SDS011;13365;52.208;5.488;2023-04-08T14:01:01;7.28;;;3.30;;
25439;SDS011;13365;52.208;5.488;2023-04-08T14:03:27;5.95;;;3.72;;
25439;SDS011;13365;52.208;5.488;2023-04-08T14:05:53;5.18;;;2.83;;
25439;SDS011;13365;52.208;5.488;2023-04-08T14:08:18;6.18;;;3.22;;
25439;SDS011;13365;52.208;5.488;2023-04-08T14:10:50;7.50;;;3.78;;
25439;SDS011;13365;52.208;5.488;2023-04-08T14:13:16;4.72;;;3.35;;
25439;SDS011;13365;52.208;5.488;2023-04-08T14:15:41;6.28;;;3.00;;
25439;SDS011;13365;52.208;5.488;2023-04-08T14:18:07;4.65;;;2.67;;
25439;SDS011;13365;52.208;5.488;2023-04-08T14:20:32;7.05;;;3.25;;
25439;SDS011;13365;52.208;5.488;2023-04-08T14:22:59;5.47;;;3.30;;
25439;SDS011;13365;52.208;5.488;2023-04-08T14:25:25;5.47;;;3.15;;
25439;SDS011;13365;52.208;5.488;2023-04-08T14:27:50;6.97;;;3.97;;
25439;SDS011;13365;52.208;5.488;2023-04-08T14:30:16;7.88;;;2.83;;
25439;SDS011;13365;52.208;5.488;2023-04-08T14:32:42;12.45;;;4.22;;
25439;SDS011;13365;52.208;5.488;2023-04-08T14:35:07;5.60;;;3.20;;
25439;SDS011;13365;52.208;5.488;2023-04-08T14:37:33;5.85;;;3.63;;
25439;SDS011;13365;52.208;5.488;2023-04-08T14:40:01;6.25;;;3.38;;
25439;SDS011;13365;52.208;5.488;2023-04-08T14:42:26;6.07;;;3.65;;
25439;SDS011;13365;52.208;5.488;2023-04-08T14:44:52;7.13;;;3.40;;
25439;SDS011;13365;52.208;5.488;2023-04-08T14:47:17;7.03;;;3.60;;
25439;SDS011;13365;52.208;5.488;2023-04-08T14:49:43;10.43;;;3.67;;
25439;SDS011;13365;52.208;5.488;2023-04-08T14:52:08;8.32;;;3.47;;
25439;SDS011;13365;52.208;5.488;2023-04-08T14:54:34;10.13;;;3.55;;
25439;SDS011;13365;52.208;5.488;2023-04-08T14:57:00;4.15;;;2.30;;
25439;SDS011;13365;52.208;5.488;2023-04-08T14:59:26;6.32;;;3.22;;
25439;SDS011;13365;52.208;5.488;2023-04-08T15:01:51;6.78;;;3.67;;